sensor_id;sensor_type;location;lat;lon;timestamp;pressure;altitude;pressure_sealevel;temperature
22828;BMP180;11580;52.562;13.418;2022-07-22T00:02:17;100887.00;;;25.20
22828;BMP180;11580;52.562;13.418;2022-07-22T00:04:44;100894.00;;;25.20
22828;BMP180;11580;52.562;13.418;2022-07-22T00:07:12;100890.00;;;25.20
22828;BMP180;11580;52.562;13.418;2022-07-22T00:09:39;100886.00;;;25.20
22828;BMP180;11580;52.562;13.418;2022-07-22T00:12:07;100899.00;;;25.20
22828;BMP180;11580;52.562;13.418;2022-07-22T00:14:34;100887.00;;;25.20
22828;BMP180;11580;52.562;13.418;2022-07-22T00:17:01;100898.00;;;25.20
22828;BMP180;11580;52.562;13.418;2022-07-22T00:19:30;100894.00;;;25.20
22828;BMP180;11580;52.562;13.418;2022-07-22T00:21:57;100887.00;;;25.20
22828;BMP180;11580;52.562;13.418;2022-07-22T00:24:24;100900.00;;;25.20
22828;BMP180;11580;52.562;13.418;2022-07-22T00:26:52;100900.00;;;25.30
22828;BMP180;11580;52.562;13.418;2022-07-22T00:29:19;100897.00;;;25.20
22828;BMP180;11580;52.562;13.418;2022-07-22T00:31:46;100896.00;;;25.30
22828;BMP180;11580;52.562;13.418;2022-07-22T00:34:14;100896.00;;;25.30
22828;BMP180;11580;52.562;13.418;2022-07-22T00:36:42;100887.00;;;25.30
22828;BMP180;11580;52.562;13.418;2022-07-22T00:39:10;100897.00;;;25.30
22828;BMP180;11580;52.562;13.418;2022-07-22T00:41:37;100891.00;;;25.40
22828;BMP180;11580;52.562;13.418;2022-07-22T00:44:07;100901.00;;;25.40
22828;BMP180;11580;52.562;13.418;2022-07-22T00:46:37;100908.00;;;25.40
22828;BMP180;11580;52.562;13.418;2022-07-22T00:49:06;100904.00;;;25.40
22828;BMP180;11580;52.562;13.418;2022-07-22T00:51:36;100901.00;;;25.40
22828;BMP180;11580;52.562;13.418;2022-07-22T00:54:07;100909.00;;;25.40
22828;BMP180;11580;52.562;13.418;2022-07-22T00:56:35;100910.00;;;25.40
22828;BMP180;11580;52.562;13.418;2022-07-22T00:59:07;100901.00;;;25.50
22828;BMP180;11580;52.562;13.418;2022-07-22T01:01:35;100902.00;;;25.50
22828;BMP180;11580;52.562;13.418;2022-07-22T01:04:03;100908.00;;;25.40
22828;BMP180;11580;52.562;13.418;2022-07-22T01:06:31;100908.00;;;25.40
22828;BMP180;11580;52.562;13.418;2022-07-22T01:08:58;100911.00;;;25.40
22828;BMP180;11580;52.562;13.418;2022-07-22T01:11:27;100905.00;;;25.40
22828;BMP180;11580;52.562;13.418;2022-07-22T01:13:56;100907.00;;;25.40
22828;BMP180;11580;52.562;13.418;2022-07-22T01:16:24;100900.00;;;25.40
22828;BMP180;11580;52.562;13.418;2022-07-22T01:18:52;100909.00;;;25.40
22828;BMP180;11580;52.562;13.418;2022-07-22T01:21:21;100909.00;;;25.40
22828;BMP180;11580;52.562;13.418;2022-07-22T01:23:49;100896.00;;;25.30
22828;BMP180;11580;52.562;13.418;2022-07-22T01:26:17;100897.00;;;25.30
22828;BMP180;11580;52.562;13.418;2022-07-22T01:28:44;100901.00;;;25.30
22828;BMP180;11580;52.562;13.418;2022-07-22T01:31:12;100909.00;;;25.30
22828;BMP180;11580;52.562;13.418;2022-07-22T01:33:40;100911.00;;;25.20
22828;BMP180;11580;52.562;13.418;2022-07-22T01:36:08;100898.00;;;25.20
22828;BMP180;11580;52.562;13.418;2022-07-22T01:38:37;100901.00;;;25.20
22828;BMP180;11580;52.562;13.418;2022-07-22T01:41:05;100900.00;;;25.20
22828;BMP180;11580;52.562;13.418;2022-07-22T01:43:32;100899.00;;;25.20
22828;BMP180;11580;52.562;13.418;2022-07-22T01:46:00;100902.00;;;25.20
22828;BMP180;11580;52.562;13.418;2022-07-22T01:48:28;100902.00;;;25.10
22828;BMP180;11580;52.562;13.418;2022-07-22T01:50:55;100900.00;;;25.10
22828;BMP180;11580;52.562;13.418;2022-07-22T01:53:23;100900.00;;;25.10
22828;BMP180;11580;52.562;13.418;2022-07-22T01:55:52;100897.00;;;25.10
22828;BMP180;11580;52.562;13.418;2022-07-22T01:58:20;100904.00;;;25.00
22828;BMP180;11580;52.562;13.418;2022-07-22T02:00:48;100899.00;;;25.00
22828;BMP180;11580;52.562;13.418;2022-07-22T02:03:16;100894.00;;;25.00
22828;BMP180;11580;52.562;13.418;2022-07-22T02:05:43;100906.00;;;24.90
22828;BMP180;11580;52.562;13.418;2022-07-22T02:08:25;100900.00;;;24.90
22828;BMP180;11580;52.562;13.418;2022-07-22T02:11:12;100895.00;;;24.90
22828;BMP180;11580;52.562;13.418;2022-07-22T02:13:59;100908.00;;;24.80
22828;BMP180;11580;52.562;13.418;2022-07-22T02:16:29;100907.00;;;24.80
22828;BMP180;11580;52.562;13.418;2022-07-22T02:18:56;100908.00;;;24.80
22828;BMP180;11580;52.562;13.418;2022-07-22T02:21:23;100914.00;;;24.70
22828;BMP180;11580;52.562;13.418;2022-07-22T02:23:57;100904.00;;;24.70
22828;BMP180;11580;52.562;13.418;2022-07-22T02:26:25;100913.00;;;24.70
22828;BMP180;11580;52.562;13.418;2022-07-22T02:28:53;100907.00;;;24.60
22828;BMP180;11580;52.562;13.418;2022-07-22T02:31:22;100900.00;;;24.60
22828;BMP180;11580;52.562;13.418;2022-07-22T02:33:49;100912.00;;;24.60
22828;BMP180;11580;52.562;13.418;2022-07-22T02:36:17;100915.00;;;24.60
22828;BMP180;11580;52.562;13.418;2022-07-22T02:38:44;100901.00;;;24.50
22828;BMP180;11580;52.562;13.418;2022-07-22T02:41:12;100909.00;;;24.50
22828;BMP180;11580;52.562;13.418;2022-07-22T02:43:48;100905.00;;;24.40
22828;BMP180;11580;52.562;13.418;2022-07-22T02:46:16;100909.00;;;24.40
22828;BMP180;11580;52.562;13.418;2022-07-22T02:48:43;100920.00;;;24.40
22828;BMP180;11580;52.562;13.418;2022-07-22T02:51:13;100915.00;;;24.40
22828;BMP180;11580;52.562;13.418;2022-07-22T02:53:40;100914.00;;;24.30
22828;BMP180;11580;52.562;13.418;2022-07-22T02:56:08;100912.00;;;24.30
22828;BMP180;11580;52.562;13.418;2022-07-22T02:58:35;100910.00;;;24.30
22828;BMP180;11580;52.562;13.418;2022-07-22T03:01:03;100918.00;;;24.30
22828;BMP180;11580;52.562;13.418;2022-07-22T03:03:39;100916.00;;;24.20
22828;BMP180;11580;52.562;13.418;2022-07-22T03:06:06;100912.00;;;24.20
22828;BMP180;11580;52.562;13.418;2022-07-22T03:08:45;100911.00;;;24.20
22828;BMP180;11580;52.562;13.418;2022-07-22T03:11:14;100910.00;;;24.20
22828;BMP180;11580;52.562;13.418;2022-07-22T03:13:41;100912.00;;;24.10
22828;BMP180;11580;52.562;13.418;2022-07-22T03:16:11;100908.00;;;24.10
22828;BMP180;11580;52.562;13.418;2022-07-22T03:18:38;100912.00;;;24.10
22828;BMP180;11580;52.562;13.418;2022-07-22T03:21:06;100910.00;;;24.10
22828;BMP180;11580;52.562;13.418;2022-07-22T03:23:33;100921.00;;;24.00
22828;BMP180;11580;52.562;13.418;2022-07-22T03:26:00;100912.00;;;24.00
22828;BMP180;11580;52.562;13.418;2022-07-22T03:28:29;100918.00;;;24.00
22828;BMP180;11580;52.562;13.418;2022-07-22T03:30:56;100913.00;;;24.00
22828;BMP180;11580;52.562;13.418;2022-07-22T03:33:25;100914.00;;;23.90
22828;BMP180;11580;52.562;13.418;2022-07-22T03:35:53;100911.00;;;23.90
22828;BMP180;11580;52.562;13.418;2022-07-22T03:38:20;100913.00;;;23.90
22828;BMP180;11580;52.562;13.418;2022-07-22T03:40:48;100888.00;;;23.90
22828;BMP180;11580;52.562;13.418;2022-07-22T03:43:15;100924.00;;;23.80
22828;BMP180;11580;52.562;13.418;2022-07-22T03:45:42;100931.00;;;23.80
22828;BMP180;11580;52.562;13.418;2022-07-22T03:48:11;100927.00;;;23.80
22828;BMP180;11580;52.562;13.418;2022-07-22T03:50:40;100928.00;;;23.90
22828;BMP180;11580;52.562;13.418;2022-07-22T03:53:08;100932.00;;;23.90
22828;BMP180;11580;52.562;13.418;2022-07-22T03:55:38;100928.00;;;23.90
22828;BMP180;11580;52.562;13.418;2022-07-22T03:58:06;100931.00;;;24.00
22828;BMP180;11580;52.562;13.418;2022-07-22T04:00:33;100933.00;;;24.00
22828;BMP180;11580;52.562;13.418;2022-07-22T04:03:03;100929.00;;;24.00
22828;BMP180;11580;52.562;13.418;2022-07-22T04:05:50;100935.00;;;24.10
22828;BMP180;11580;52.562;13.418;2022-07-22T04:08:32;100936.00;;;24.10
22828;BMP180;11580;52.562;13.418;2022-07-22T04:11:02;100925.00;;;24.20
22828;BMP180;11580;52.562;13.418;2022-07-22T04:13:29;100923.00;;;24.20
22828;BMP180;11580;52.562;13.418;2022-07-22T04:15:58;100927.00;;;24.20
22828;BMP180;11580;52.562;13.418;2022-07-22T04:18:30;100932.00;;;24.30
22828;BMP180;11580;52.562;13.418;2022-07-22T04:20:59;100937.00;;;24.40
22828;BMP180;11580;52.562;13.418;2022-07-22T04:23:33;100931.00;;;24.40
22828;BMP180;11580;52.562;13.418;2022-07-22T04:26:20;100935.00;;;24.40
22828;BMP180;11580;52.562;13.418;2022-07-22T04:28:48;100933.00;;;24.50
22828;BMP180;11580;52.562;13.418;2022-07-22T04:31:15;100933.00;;;24.50
22828;BMP180;11580;52.562;13.418;2022-07-22T04:33:43;100932.00;;;24.60
22828;BMP180;11580;52.562;13.418;2022-07-22T04:36:11;100941.00;;;24.60
22828;BMP180;11580;52.562;13.418;2022-07-22T04:38:39;100940.00;;;24.60
22828;BMP180;11580;52.562;13.418;2022-07-22T04:41:09;100939.00;;;24.70
22828;BMP180;11580;52.562;13.418;2022-07-22T04:43:36;100943.00;;;24.70
22828;BMP180;11580;52.562;13.418;2022-07-22T04:46:05;100942.00;;;24.70
22828;BMP180;11580;52.562;13.418;2022-07-22T04:48:34;100935.00;;;24.80
22828;BMP180;11580;52.562;13.418;2022-07-22T04:51:03;100940.00;;;24.80
22828;BMP180;11580;52.562;13.418;2022-07-22T04:53:33;100946.00;;;24.90
22828;BMP180;11580;52.562;13.418;2022-07-22T04:56:00;100946.00;;;24.90
22828;BMP180;11580;52.562;13.418;2022-07-22T04:58:28;100944.00;;;25.00
22828;BMP180;11580;52.562;13.418;2022-07-22T05:00:55;100947.00;;;25.00
22828;BMP180;11580;52.562;13.418;2022-07-22T05:03:23;100952.00;;;25.00
22828;BMP180;11580;52.562;13.418;2022-07-22T05:05:52;100951.00;;;25.10
22828;BMP180;11580;52.562;13.418;2022-07-22T05:08:27;100949.00;;;25.10
22828;BMP180;11580;52.562;13.418;2022-07-22T05:10:56;100954.00;;;25.20
22828;BMP180;11580;52.562;13.418;2022-07-22T05:13:23;100947.00;;;25.20
22828;BMP180;11580;52.562;13.418;2022-07-22T05:15:51;100949.00;;;25.30
22828;BMP180;11580;52.562;13.418;2022-07-22T05:18:18;100944.00;;;25.30
22828;BMP180;11580;52.562;13.418;2022-07-22T05:20:45;100949.00;;;25.30
22828;BMP180;11580;52.562;13.418;2022-07-22T05:23:13;100949.00;;;25.40
22828;BMP180;11580;52.562;13.418;2022-07-22T05:25:40;100953.00;;;25.40
22828;BMP180;11580;52.562;13.418;2022-07-22T05:28:09;100963.00;;;25.40
22828;BMP180;11580;52.562;13.418;2022-07-22T05:30:40;100953.00;;;25.50
22828;BMP180;11580;52.562;13.418;2022-07-22T05:33:08;100955.00;;;25.50
22828;BMP180;11580;52.562;13.418;2022-07-22T05:36:01;100953.00;;;25.60
22828;BMP180;11580;52.562;13.418;2022-07-22T05:38:35;100957.00;;;25.60
22828;BMP180;11580;52.562;13.418;2022-07-22T05:41:03;100966.00;;;25.70
22828;BMP180;11580;52.562;13.418;2022-07-22T05:43:32;100962.00;;;25.80
22828;BMP180;11580;52.562;13.418;2022-07-22T05:46:01;100961.00;;;25.90
22828;BMP180;11580;52.562;13.418;2022-07-22T05:48:28;100965.00;;;26.00
22828;BMP180;11580;52.562;13.418;2022-07-22T05:50:56;100968.00;;;26.10
22828;BMP180;11580;52.562;13.418;2022-07-22T05:53:23;100961.00;;;26.20
22828;BMP180;11580;52.562;13.418;2022-07-22T05:55:51;100964.00;;;26.30
22828;BMP180;11580;52.562;13.418;2022-07-22T05:58:18;100961.00;;;26.40
22828;BMP180;11580;52.562;13.418;2022-07-22T06:00:47;100970.00;;;26.60
22828;BMP180;11580;52.562;13.418;2022-07-22T06:03:14;100973.00;;;26.70
22828;BMP180;11580;52.562;13.418;2022-07-22T06:05:42;100973.00;;;26.80
22828;BMP180;11580;52.562;13.418;2022-07-22T06:08:11;100968.00;;;27.00
22828;BMP180;11580;52.562;13.418;2022-07-22T06:10:42;100974.00;;;27.10
22828;BMP180;11580;52.562;13.418;2022-07-22T06:13:10;100971.00;;;27.30
22828;BMP180;11580;52.562;13.418;2022-07-22T06:15:39;100978.00;;;27.40
22828;BMP180;11580;52.562;13.418;2022-07-22T06:18:08;100974.00;;;27.60
22828;BMP180;11580;52.562;13.418;2022-07-22T06:20:36;100973.00;;;27.60
22828;BMP180;11580;52.562;13.418;2022-07-22T06:23:03;100971.00;;;27.70
22828;BMP180;11580;52.562;13.418;2022-07-22T06:25:31;100981.00;;;27.80
22828;BMP180;11580;52.562;13.418;2022-07-22T06:27:59;100979.00;;;27.90
22828;BMP180;11580;52.562;13.418;2022-07-22T06:30:27;100979.00;;;28.00
22828;BMP180;11580;52.562;13.418;2022-07-22T06:32:55;100985.00;;;28.10
22828;BMP180;11580;52.562;13.418;2022-07-22T06:35:23;100972.00;;;28.20
22828;BMP180;11580;52.562;13.418;2022-07-22T06:37:51;100971.00;;;28.20
22828;BMP180;11580;52.562;13.418;2022-07-22T06:40:20;100973.00;;;28.30
22828;BMP180;11580;52.562;13.418;2022-07-22T06:43:14;100980.00;;;28.40
22828;BMP180;11580;52.562;13.418;2022-07-22T06:46:10;100983.00;;;28.40
22828;BMP180;11580;52.562;13.418;2022-07-22T06:48:49;100976.00;;;28.50
22828;BMP180;11580;52.562;13.418;2022-07-22T06:51:17;100979.00;;;28.60
22828;BMP180;11580;52.562;13.418;2022-07-22T06:53:45;100979.00;;;28.70
22828;BMP180;11580;52.562;13.418;2022-07-22T06:56:12;100987.00;;;28.80
22828;BMP180;11580;52.562;13.418;2022-07-22T06:58:40;100975.00;;;28.90
22828;BMP180;11580;52.562;13.418;2022-07-22T07:01:10;100986.00;;;29.00
22828;BMP180;11580;52.562;13.418;2022-07-22T07:03:48;100977.00;;;29.00
22828;BMP180;11580;52.562;13.418;2022-07-22T07:06:18;100973.00;;;29.10
22828;BMP180;11580;52.562;13.418;2022-07-22T07:09:03;100977.00;;;29.10
22828;BMP180;11580;52.562;13.418;2022-07-22T07:11:31;100985.00;;;29.20
22828;BMP180;11580;52.562;13.418;2022-07-22T07:14:00;100983.00;;;29.20
22828;BMP180;11580;52.562;13.418;2022-07-22T07:16:28;100988.00;;;29.30
22828;BMP180;11580;52.562;13.418;2022-07-22T07:18:55;100982.00;;;29.40
22828;BMP180;11580;52.562;13.418;2022-07-22T07:21:24;100986.00;;;29.50
22828;BMP180;11580;52.562;13.418;2022-07-22T07:23:51;100987.00;;;29.60
22828;BMP180;11580;52.562;13.418;2022-07-22T07:26:19;100985.00;;;29.70
22828;BMP180;11580;52.562;13.418;2022-07-22T07:28:47;100985.00;;;29.80
22828;BMP180;11580;52.562;13.418;2022-07-22T07:31:19;100981.00;;;29.90
22828;BMP180;11580;52.562;13.418;2022-07-22T07:33:50;100976.00;;;30.00
22828;BMP180;11580;52.562;13.418;2022-07-22T07:36:17;100981.00;;;30.10
22828;BMP180;11580;52.562;13.418;2022-07-22T07:38:50;100980.00;;;30.20
22828;BMP180;11580;52.562;13.418;2022-07-22T07:41:17;100984.00;;;30.30
22828;BMP180;11580;52.562;13.418;2022-07-22T07:43:49;100986.00;;;30.30
22828;BMP180;11580;52.562;13.418;2022-07-22T07:46:16;100990.00;;;30.40
22828;BMP180;11580;52.562;13.418;2022-07-22T07:48:44;100985.00;;;30.50
22828;BMP180;11580;52.562;13.418;2022-07-22T07:51:13;100988.00;;;30.60
22828;BMP180;11580;52.562;13.418;2022-07-22T07:53:40;100981.00;;;30.60
22828;BMP180;11580;52.562;13.418;2022-07-22T07:56:09;100987.00;;;30.70
22828;BMP180;11580;52.562;13.418;2022-07-22T07:58:36;100992.00;;;30.60
22828;BMP180;11580;52.562;13.418;2022-07-22T08:01:04;100987.00;;;30.60
22828;BMP180;11580;52.562;13.418;2022-07-22T08:03:32;100994.00;;;30.60
22828;BMP180;11580;52.562;13.418;2022-07-22T08:06:00;100986.00;;;30.60
22828;BMP180;11580;52.562;13.418;2022-07-22T08:08:28;100995.00;;;30.70
22828;BMP180;11580;52.562;13.418;2022-07-22T08:10:59;100983.00;;;30.70
22828;BMP180;11580;52.562;13.418;2022-07-22T08:13:34;100987.00;;;30.80
22828;BMP180;11580;52.562;13.418;2022-07-22T08:16:19;100994.00;;;30.90
22828;BMP180;11580;52.562;13.418;2022-07-22T08:18:47;100994.00;;;30.90
22828;BMP180;11580;52.562;13.418;2022-07-22T08:21:15;100989.00;;;31.00
22828;BMP180;11580;52.562;13.418;2022-07-22T08:23:55;100990.00;;;31.00
22828;BMP180;11580;52.562;13.418;2022-07-22T08:26:23;100998.00;;;31.00
22828;BMP180;11580;52.562;13.418;2022-07-22T08:28:53;100998.00;;;31.00
22828;BMP180;11580;52.562;13.418;2022-07-22T08:31:20;100998.00;;;31.10
22828;BMP180;11580;52.562;13.418;2022-07-22T08:33:49;100993.00;;;31.10
22828;BMP180;11580;52.562;13.418;2022-07-22T08:36:16;100988.00;;;31.10
22828;BMP180;11580;52.562;13.418;2022-07-22T08:38:43;100994.00;;;31.10
22828;BMP180;11580;52.562;13.418;2022-07-22T08:41:12;100996.00;;;31.10
22828;BMP180;11580;52.562;13.418;2022-07-22T08:43:41;100991.00;;;31.10
22828;BMP180;11580;52.562;13.418;2022-07-22T08:46:11;100997.00;;;31.00
22828;BMP180;11580;52.562;13.418;2022-07-22T08:49:01;101005.00;;;30.80
22828;BMP180;11580;52.562;13.418;2022-07-22T08:51:52;101002.00;;;30.70
22828;BMP180;11580;52.562;13.418;2022-07-22T08:54:24;101009.00;;;30.50
22828;BMP180;11580;52.562;13.418;2022-07-22T08:56:53;101004.00;;;30.40
22828;BMP180;11580;52.562;13.418;2022-07-22T08:59:24;100991.00;;;30.30
22828;BMP180;11580;52.562;13.418;2022-07-22T09:02:05;101008.00;;;30.30
22828;BMP180;11580;52.562;13.418;2022-07-22T09:04:52;101007.00;;;30.20
22828;BMP180;11580;52.562;13.418;2022-07-22T09:07:28;101006.00;;;30.30
22828;BMP180;11580;52.562;13.418;2022-07-22T09:10:05;101003.00;;;30.40
22828;BMP180;11580;52.562;13.418;2022-07-22T09:12:55;101000.00;;;30.40
22828;BMP180;11580;52.562;13.418;2022-07-22T09:15:48;101000.00;;;30.50
22828;BMP180;11580;52.562;13.418;2022-07-22T09:18:48;101007.00;;;30.40
22828;BMP180;11580;52.562;13.418;2022-07-22T09:21:36;101008.00;;;30.30
22828;BMP180;11580;52.562;13.418;2022-07-22T09:24:27;101005.00;;;30.10
22828;BMP180;11580;52.562;13.418;2022-07-22T09:27:03;101009.00;;;29.90
22828;BMP180;11580;52.562;13.418;2022-07-22T09:29:51;101008.00;;;29.70
22828;BMP180;11580;52.562;13.418;2022-07-22T09:32:22;101018.00;;;29.50
22828;BMP180;11580;52.562;13.418;2022-07-22T09:35:02;101009.00;;;29.30
22828;BMP180;11580;52.562;13.418;2022-07-22T09:37:34;101021.00;;;29.10
22828;BMP180;11580;52.562;13.418;2022-07-22T09:40:13;101015.00;;;28.90
22828;BMP180;11580;52.562;13.418;2022-07-22T09:42:48;101009.00;;;28.70
22828;BMP180;11580;52.562;13.418;2022-07-22T09:45:17;101016.00;;;28.60
22828;BMP180;11580;52.562;13.418;2022-07-22T09:47:46;101018.00;;;28.60
22828;BMP180;11580;52.562;13.418;2022-07-22T09:50:30;100999.00;;;28.70
22828;BMP180;11580;52.562;13.418;2022-07-22T09:53:13;101024.00;;;28.80
22828;BMP180;11580;52.562;13.418;2022-07-22T09:55:47;101019.00;;;28.90
22828;BMP180;11580;52.562;13.418;2022-07-22T09:58:15;101022.00;;;29.10
22828;BMP180;11580;52.562;13.418;2022-07-22T10:00:44;101030.00;;;29.30
22828;BMP180;11580;52.562;13.418;2022-07-22T10:03:21;101028.00;;;29.50
22828;BMP180;11580;52.562;13.418;2022-07-22T10:05:53;101026.00;;;29.70
22828;BMP180;11580;52.562;13.418;2022-07-22T10:08:22;101034.00;;;29.90
22828;BMP180;11580;52.562;13.418;2022-07-22T10:10:51;101028.00;;;30.00
22828;BMP180;11580;52.562;13.418;2022-07-22T10:13:19;101027.00;;;30.10
22828;BMP180;11580;52.562;13.418;2022-07-22T10:15:47;101030.00;;;30.10
22828;BMP180;11580;52.562;13.418;2022-07-22T10:18:17;101037.00;;;30.00
22828;BMP180;11580;52.562;13.418;2022-07-22T10:20:47;101051.00;;;29.90
22828;BMP180;11580;52.562;13.418;2022-07-22T10:23:16;101041.00;;;29.80
22828;BMP180;11580;52.562;13.418;2022-07-22T10:25:52;101031.00;;;29.70
22828;BMP180;11580;52.562;13.418;2022-07-22T10:28:24;101038.00;;;29.60
22828;BMP180;11580;52.562;13.418;2022-07-22T10:30:52;101032.00;;;29.60
22828;BMP180;11580;52.562;13.418;2022-07-22T10:33:20;101038.00;;;29.60
22828;BMP180;11580;52.562;13.418;2022-07-22T10:35:57;101043.00;;;29.70
22828;BMP180;11580;52.562;13.418;2022-07-22T10:38:28;101036.00;;;29.70
22828;BMP180;11580;52.562;13.418;2022-07-22T10:40:57;101027.00;;;29.80
22828;BMP180;11580;52.562;13.418;2022-07-22T10:43:27;101038.00;;;29.90
22828;BMP180;11580;52.562;13.418;2022-07-22T10:45:57;101038.00;;;30.00
22828;BMP180;11580;52.562;13.418;2022-07-22T10:48:44;101034.00;;;30.20
22828;BMP180;11580;52.562;13.418;2022-07-22T10:51:15;101034.00;;;30.30
22828;BMP180;11580;52.562;13.418;2022-07-22T10:53:47;101037.00;;;30.40
22828;BMP180;11580;52.562;13.418;2022-07-22T10:56:25;101038.00;;;30.40
22828;BMP180;11580;52.562;13.418;2022-07-22T10:59:07;101043.00;;;30.30
22828;BMP180;11580;52.562;13.418;2022-07-22T11:01:37;101051.00;;;30.20
22828;BMP180;11580;52.562;13.418;2022-07-22T11:04:15;101040.00;;;30.10
22828;BMP180;11580;52.562;13.418;2022-07-22T11:06:43;101036.00;;;30.00
22828;BMP180;11580;52.562;13.418;2022-07-22T11:09:16;101022.00;;;29.90
22828;BMP180;11580;52.562;13.418;2022-07-22T11:11:46;101047.00;;;29.90
22828;BMP180;11580;52.562;13.418;2022-07-22T11:14:18;101023.00;;;29.80
22828;BMP180;11580;52.562;13.418;2022-07-22T11:16:47;101029.00;;;29.80
22828;BMP180;11580;52.562;13.418;2022-07-22T11:19:20;101038.00;;;29.70
22828;BMP180;11580;52.562;13.418;2022-07-22T11:21:52;101040.00;;;29.60
22828;BMP180;11580;52.562;13.418;2022-07-22T11:24:22;101034.00;;;29.50
22828;BMP180;11580;52.562;13.418;2022-07-22T11:26:52;101021.00;;;29.40
22828;BMP180;11580;52.562;13.418;2022-07-22T11:29:26;101027.00;;;29.30
22828;BMP180;11580;52.562;13.418;2022-07-22T11:31:55;101038.00;;;29.30
22828;BMP180;11580;52.562;13.418;2022-07-22T11:34:24;101035.00;;;29.40
22828;BMP180;11580;52.562;13.418;2022-07-22T11:36:54;101028.00;;;29.40
22828;BMP180;11580;52.562;13.418;2022-07-22T11:39:25;101041.00;;;29.50
22828;BMP180;11580;52.562;13.418;2022-07-22T11:41:56;101021.00;;;29.60
22828;BMP180;11580;52.562;13.418;2022-07-22T11:44:26;101030.00;;;29.80
22828;BMP180;11580;52.562;13.418;2022-07-22T11:46:54;101036.00;;;29.90
22828;BMP180;11580;52.562;13.418;2022-07-22T11:49:26;101038.00;;;30.00
22828;BMP180;11580;52.562;13.418;2022-07-22T11:51:54;101034.00;;;30.10
22828;BMP180;11580;52.562;13.418;2022-07-22T11:54:23;101036.00;;;30.10
22828;BMP180;11580;52.562;13.418;2022-07-22T11:56:50;101037.00;;;30.30
22828;BMP180;11580;52.562;13.418;2022-07-22T11:59:18;101034.00;;;30.40
22828;BMP180;11580;52.562;13.418;2022-07-22T12:01:47;101022.00;;;30.50
22828;BMP180;11580;52.562;13.418;2022-07-22T12:04:17;101031.00;;;30.60
22828;BMP180;11580;52.562;13.418;2022-07-22T12:06:46;101027.00;;;30.70
22828;BMP180;11580;52.562;13.418;2022-07-22T12:09:20;101025.00;;;30.70
22828;BMP180;11580;52.562;13.418;2022-07-22T12:11:52;101034.00;;;30.70
22828;BMP180;11580;52.562;13.418;2022-07-22T12:14:22;101034.00;;;30.80
22828;BMP180;11580;52.562;13.418;2022-07-22T12:16:56;101033.00;;;30.80
22828;BMP180;11580;52.562;13.418;2022-07-22T12:19:26;101037.00;;;30.80
22828;BMP180;11580;52.562;13.418;2022-07-22T12:21:58;101040.00;;;30.80
22828;BMP180;11580;52.562;13.418;2022-07-22T12:24:28;101034.00;;;30.80
22828;BMP180;11580;52.562;13.418;2022-07-22T12:26:59;101036.00;;;30.70
22828;BMP180;11580;52.562;13.418;2022-07-22T12:29:30;101046.00;;;30.60
22828;BMP180;11580;52.562;13.418;2022-07-22T12:32:01;101048.00;;;30.50
22828;BMP180;11580;52.562;13.418;2022-07-22T12:34:35;101041.00;;;30.40
22828;BMP180;11580;52.562;13.418;2022-07-22T12:37:14;101050.00;;;30.40
22828;BMP180;11580;52.562;13.418;2022-07-22T12:39:57;101040.00;;;30.30
22828;BMP180;11580;52.562;13.418;2022-07-22T12:42:28;101045.00;;;30.20
22828;BMP180;11580;52.562;13.418;2022-07-22T12:45:03;101048.00;;;30.20
22828;BMP180;11580;52.562;13.418;2022-07-22T12:47:47;101046.00;;;30.20
22828;BMP180;11580;52.562;13.418;2022-07-22T12:50:28;101035.00;;;30.10
22828;BMP180;11580;52.562;13.418;2022-07-22T12:52:57;101045.00;;;30.10
22828;BMP180;11580;52.562;13.418;2022-07-22T12:55:26;101042.00;;;30.00
22828;BMP180;11580;52.562;13.418;2022-07-22T12:57:55;101039.00;;;29.90
22828;BMP180;11580;52.562;13.418;2022-07-22T13:00:25;101031.00;;;29.80
22828;BMP180;11580;52.562;13.418;2022-07-22T13:02:53;101030.00;;;29.60
22828;BMP180;11580;52.562;13.418;2022-07-22T13:05:22;101025.00;;;29.50
22828;BMP180;11580;52.562;13.418;2022-07-22T13:07:50;101034.00;;;29.30
22828;BMP180;11580;52.562;13.418;2022-07-22T13:10:21;101025.00;;;29.10
22828;BMP180;11580;52.562;13.418;2022-07-22T13:12:49;101030.00;;;29.00
22828;BMP180;11580;52.562;13.418;2022-07-22T13:15:18;101034.00;;;28.90
22828;BMP180;11580;52.562;13.418;2022-07-22T13:17:46;101044.00;;;28.90
22828;BMP180;11580;52.562;13.418;2022-07-22T13:20:15;101034.00;;;28.90
22828;BMP180;11580;52.562;13.418;2022-07-22T13:22:44;101031.00;;;28.90
22828;BMP180;11580;52.562;13.418;2022-07-22T13:25:12;101038.00;;;28.90
22828;BMP180;11580;52.562;13.418;2022-07-22T13:27:40;101039.00;;;28.90
22828;BMP180;11580;52.562;13.418;2022-07-22T13:30:09;101041.00;;;28.90
22828;BMP180;11580;52.562;13.418;2022-07-22T13:32:37;101029.00;;;28.90
22828;BMP180;11580;52.562;13.418;2022-07-22T13:35:05;101044.00;;;28.80
22828;BMP180;11580;52.562;13.418;2022-07-22T13:37:35;101037.00;;;28.80
22828;BMP180;11580;52.562;13.418;2022-07-22T13:40:02;101025.00;;;28.80
22828;BMP180;11580;52.562;13.418;2022-07-22T13:42:30;101021.00;;;28.70
22828;BMP180;11580;52.562;13.418;2022-07-22T13:44:57;101024.00;;;28.70
22828;BMP180;11580;52.562;13.418;2022-07-22T13:47:25;101020.00;;;28.70
22828;BMP180;11580;52.562;13.418;2022-07-22T13:49:54;101018.00;;;28.70
22828;BMP180;11580;52.562;13.418;2022-07-22T13:52:22;101021.00;;;28.60
22828;BMP180;11580;52.562;13.418;2022-07-22T13:54:49;101023.00;;;28.60
22828;BMP180;11580;52.562;13.418;2022-07-22T13:57:17;101023.00;;;28.60
22828;BMP180;11580;52.562;13.418;2022-07-22T13:59:45;101023.00;;;28.50
22828;BMP180;11580;52.562;13.418;2022-07-22T14:02:12;101027.00;;;28.50
22828;BMP180;11580;52.562;13.418;2022-07-22T14:04:40;101026.00;;;28.50